createdAt,value
2022-11-29T00:01:24.052Z,7.30
2022-11-29T00:03:54.368Z,7.40
2022-11-29T00:06:24.227Z,7.40
2022-11-29T00:08:52.251Z,7.30
2022-11-29T00:11:37.137Z,7.30
2022-11-29T00:14:05.802Z,7.30
2022-11-29T00:16:34.349Z,7.30
2022-11-29T00:19:04.246Z,7.40
2022-11-29T00:21:32.248Z,7.40
2022-11-29T00:24:00.632Z,7.40
2022-11-29T00:26:28.723Z,7.40
2022-11-29T00:28:56.822Z,7.40
2022-11-29T00:31:27.135Z,7.40
2022-11-29T00:33:55.300Z,7.40
2022-11-29T00:36:24.895Z,7.40
2022-11-29T00:38:53.156Z,7.40
2022-11-29T00:41:21.454Z,7.40
2022-11-29T00:43:49.552Z,7.40
2022-11-29T00:46:18.027Z,7.40
2022-11-29T00:48:46.100Z,7.50
2022-11-29T00:51:14.307Z,7.50
2022-11-29T00:53:43.697Z,7.50
2022-11-29T00:56:11.947Z,7.40
2022-11-29T00:58:40.000Z,7.40
2022-11-29T01:01:08.034Z,7.50
2022-11-29T01:03:36.108Z,7.40
2022-11-29T01:06:05.166Z,7.50
2022-11-29T01:08:33.572Z,7.50
2022-11-29T01:11:11.944Z,7.50
2022-11-29T01:13:40.227Z,7.50
2022-11-29T01:16:09.693Z,7.50
2022-11-29T01:18:38.395Z,7.50
2022-11-29T01:21:08.742Z,7.50
2022-11-29T01:23:37.849Z,7.40
2022-11-29T01:26:08.927Z,7.40
2022-11-29T01:28:38.324Z,7.40
2022-11-29T01:31:08.114Z,7.40
2022-11-29T01:33:36.734Z,7.40
2022-11-29T01:36:06.216Z,7.40
2022-11-29T01:38:34.658Z,7.40
2022-11-29T01:41:05.626Z,7.50
2022-11-29T01:43:35.625Z,7.50
2022-11-29T01:46:03.676Z,7.50
2022-11-29T01:48:34.426Z,7.50
2022-11-29T01:51:02.866Z,7.50
2022-11-29T01:53:30.986Z,7.50
2022-11-29T01:56:04.215Z,7.60
2022-11-29T01:58:34.328Z,7.60
2022-11-29T02:01:02.728Z,7.50
2022-11-29T02:03:30.762Z,7.60
2022-11-29T02:05:58.982Z,7.60
2022-11-29T02:08:32.665Z,7.60
2022-11-29T02:11:21.994Z,7.60
2022-11-29T02:14:03.011Z,7.50
2022-11-29T02:16:38.903Z,7.40
2022-11-29T02:19:23.073Z,7.50
2022-11-29T02:21:57.544Z,7.50
2022-11-29T02:24:44.454Z,7.50
2022-11-29T02:27:45.759Z,7.50
2022-11-29T02:30:24.781Z,7.50
2022-11-29T02:33:10.112Z,7.50
2022-11-29T02:35:57.439Z,7.50
2022-11-29T02:38:46.530Z,7.50
2022-11-29T02:41:28.836Z,7.60
2022-11-29T02:44:20.168Z,7.60
2022-11-29T02:47:04.423Z,7.60
2022-11-29T02:49:49.872Z,7.60
2022-11-29T02:52:23.296Z,7.60
2022-11-29T02:54:58.837Z,7.60
2022-11-29T02:57:34.430Z,7.70
2022-11-29T03:00:08.387Z,7.60
2022-11-29T03:02:42.281Z,7.60
2022-11-29T03:05:20.029Z,7.60
2022-11-29T03:07:55.837Z,7.60
2022-11-29T03:10:34.830Z,7.60
2022-11-29T03:13:06.876Z,7.60
2022-11-29T03:15:42.578Z,7.60
2022-11-29T03:18:28.566Z,7.50
2022-11-29T03:21:08.659Z,7.60
2022-11-29T03:23:40.454Z,7.50
2022-11-29T03:26:11.834Z,7.50
2022-11-29T03:28:44.117Z,7.50
2022-11-29T03:31:21.798Z,7.60
2022-11-29T03:33:58.529Z,7.50
2022-11-29T03:36:39.681Z,7.50
2022-11-29T03:39:14.460Z,7.50
2022-11-29T03:41:47.934Z,7.50
2022-11-29T03:44:19.291Z,7.50
2022-11-29T03:46:55.707Z,7.60
2022-11-29T03:49:27.810Z,7.60
2022-11-29T03:52:07.848Z,7.60
2022-11-29T03:54:47.737Z,7.60
2022-11-29T03:57:21.890Z,7.60
2022-11-29T04:00:02.620Z,7.50
2022-11-29T04:03:14.157Z,7.60
2022-11-29T04:06:11.793Z,7.60
2022-11-29T04:09:26.738Z,7.60
2022-11-29T04:12:42.673Z,7.60
2022-11-29T04:15:42.802Z,7.60
2022-11-29T04:18:48.710Z,7.60
2022-11-29T04:21:42.467Z,7.60
2022-11-29T04:24:46.895Z,7.60
2022-11-29T04:27:35.783Z,7.60
2022-11-29T04:30:17.856Z,7.60
2022-11-29T04:33:17.925Z,7.60
2022-11-29T04:36:19.574Z,7.60
2022-11-29T04:39:14.695Z,7.60
2022-11-29T04:42:02.965Z,7.60
2022-11-29T04:44:55.389Z,7.60
2022-11-29T04:47:56.842Z,7.60
2022-11-29T04:50:34.284Z,7.70
2022-11-29T04:53:31.929Z,7.60
2022-11-29T04:56:10.020Z,7.60
2022-11-29T04:58:44.983Z,7.60
2022-11-29T05:01:24.320Z,7.60
2022-11-29T05:04:00.121Z,7.60
2022-11-29T05:06:36.235Z,7.60
2022-11-29T05:09:10.172Z,7.60
2022-11-29T05:11:50.254Z,7.60
2022-11-29T05:14:28.094Z,7.60
2022-11-29T05:17:11.137Z,7.60
2022-11-29T05:19:56.096Z,7.60
2022-11-29T05:22:32.722Z,7.60
2022-11-29T05:25:14.115Z,7.60
2022-11-29T05:27:47.539Z,7.60
2022-11-29T05:30:17.068Z,7.60
2022-11-29T05:32:58.636Z,7.60
2022-11-29T05:35:53.973Z,7.60
2022-11-29T05:38:44.881Z,7.60
2022-11-29T05:41:39.993Z,7.60
2022-11-29T05:44:13.782Z,7.60
2022-11-29T05:46:52.769Z,7.60
2022-11-29T05:49:34.552Z,7.60
2022-11-29T05:52:19.245Z,7.60
2022-11-29T05:55:00.077Z,7.60
2022-11-29T05:57:34.860Z,7.70
2022-11-29T06:00:04.379Z,7.60
2022-11-29T06:02:44.236Z,7.70
2022-11-29T06:05:18.580Z,7.70
2022-11-29T06:07:54.777Z,7.70
2022-11-29T06:10:26.216Z,7.70
2022-11-29T06:13:09.389Z,7.60
2022-11-29T06:15:59.470Z,7.70
2022-11-29T06:18:55.278Z,7.70
2022-11-29T06:21:37.362Z,7.70
2022-11-29T06:24:36.696Z,7.70
2022-11-29T06:27:36.693Z,7.70
2022-11-29T06:30:09.864Z,7.70
2022-11-29T06:32:46.364Z,7.60
2022-11-29T06:35:39.856Z,7.60
2022-11-29T06:38:14.821Z,7.60
2022-11-29T06:40:43.360Z,7.70
2022-11-29T06:43:11.982Z,7.70
2022-11-29T06:45:43.095Z,7.70
2022-11-29T06:48:13.449Z,7.70
2022-11-29T06:50:50.872Z,7.70
2022-11-29T06:53:25.276Z,7.70
2022-11-29T06:55:58.846Z,7.70
2022-11-29T06:58:38.357Z,7.70
2022-11-29T07:01:17.555Z,7.70
2022-11-29T07:04:26.407Z,7.70
2022-11-29T07:06:54.891Z,7.70
2022-11-29T07:09:29.315Z,7.70
2022-11-29T07:11:58.009Z,7.70
2022-11-29T07:14:26.694Z,7.70
2022-11-29T07:17:04.930Z,7.70
2022-11-29T07:19:42.740Z,7.70
2022-11-29T07:22:27.259Z,7.70
2022-11-29T07:25:03.265Z,7.70
2022-11-29T07:27:39.271Z,7.70
2022-11-29T07:30:13.757Z,7.70
2022-11-29T07:32:57.279Z,7.70
2022-11-29T07:35:35.231Z,7.70
2022-11-29T07:38:11.117Z,7.70
2022-11-29T07:40:50.986Z,7.70
2022-11-29T07:43:30.088Z,7.70
2022-11-29T07:45:58.352Z,7.70
2022-11-29T07:48:26.935Z,7.70
2022-11-29T07:50:55.441Z,7.80
2022-11-29T07:53:24.376Z,7.80
2022-11-29T07:55:53.941Z,7.80
2022-11-29T07:58:22.009Z,7.90
2022-11-29T08:00:50.084Z,7.90
2022-11-29T08:03:18.145Z,7.90
2022-11-29T08:05:48.357Z,8.00
2022-11-29T08:08:17.157Z,7.90
2022-11-29T08:10:46.343Z,7.90
2022-11-29T08:13:15.822Z,7.90
2022-11-29T08:15:47.233Z,7.90
2022-11-29T08:18:16.450Z,7.90
2022-11-29T08:20:46.223Z,7.90
2022-11-29T08:23:14.853Z,8.00
2022-11-29T08:25:43.136Z,8.10
2022-11-29T08:28:11.282Z,8.10
2022-11-29T08:30:40.687Z,8.10
2022-11-29T08:33:08.705Z,8.10
2022-11-29T08:35:36.932Z,8.10
2022-11-29T08:38:05.124Z,8.10
2022-11-29T08:40:33.225Z,8.20
2022-11-29T08:43:01.208Z,8.20
2022-11-29T08:45:29.289Z,8.20
2022-11-29T08:47:58.814Z,8.20
2022-11-29T08:50:26.983Z,8.20
2022-11-29T08:53:12.335Z,8.20
2022-11-29T08:55:42.949Z,8.30
2022-11-29T08:58:13.571Z,8.40
2022-11-29T09:00:43.516Z,8.40
2022-11-29T09:03:30.706Z,8.40
2022-11-29T09:05:59.669Z,8.40
2022-11-29T09:08:27.681Z,8.40
2022-11-29T09:10:55.798Z,8.50
2022-11-29T09:13:23.789Z,8.50
2022-11-29T09:15:51.905Z,8.60
2022-11-29T09:18:22.668Z,8.50
2022-11-29T09:20:50.729Z,8.50
2022-11-29T09:23:18.824Z,8.60
2022-11-29T09:25:49.871Z,8.60
2022-11-29T09:28:17.910Z,8.60
2022-11-29T09:30:45.926Z,8.60
2022-11-29T09:33:13.937Z,8.70
2022-11-29T09:35:43.525Z,8.70
2022-11-29T09:38:12.381Z,8.70
2022-11-29T09:40:46.058Z,8.70
2022-11-29T09:43:24.142Z,8.70
2022-11-29T09:46:00.643Z,8.80
2022-11-29T09:49:04.051Z,8.80
2022-11-29T09:51:44.386Z,8.90
2022-11-29T09:54:27.641Z,8.90
2022-11-29T09:56:57.869Z,9.00
2022-11-29T09:59:29.542Z,9.00
2022-11-29T10:02:04.285Z,9.00
2022-11-29T10:04:40.306Z,9.00
2022-11-29T10:07:19.589Z,9.00
2022-11-29T10:09:51.481Z,9.10
2022-11-29T10:12:23.924Z,9.10
2022-11-29T10:14:56.269Z,9.20
2022-11-29T10:17:35.420Z,9.20
2022-11-29T10:20:11.049Z,9.20
2022-11-29T10:22:49.350Z,9.20
2022-11-29T10:25:23.982Z,9.20
2022-11-29T10:27:52.366Z,9.20
2022-11-29T10:30:20.543Z,9.30
2022-11-29T10:32:53.203Z,9.30
2022-11-29T10:35:22.714Z,9.30
2022-11-29T10:38:28.555Z,9.20
2022-11-29T10:40:46.925Z,9.30
2022-11-29T10:43:15.206Z,9.30
2022-11-29T10:45:50.311Z,9.40
2022-11-29T10:48:20.924Z,9.40
2022-11-29T10:50:52.225Z,9.50
2022-11-29T10:53:26.077Z,9.50
2022-11-29T10:56:01.054Z,9.50
2022-11-29T10:58:30.179Z,9.60
2022-11-29T11:01:01.029Z,9.70
2022-11-29T11:03:33.460Z,9.60
2022-11-29T11:06:05.428Z,9.60
2022-11-29T11:08:36.033Z,9.60
2022-11-29T11:11:05.911Z,9.50
2022-11-29T11:13:34.670Z,9.40
2022-11-29T11:16:11.682Z,9.50
2022-11-29T11:18:40.109Z,9.40
2022-11-29T11:21:11.642Z,9.40
2022-11-29T11:23:47.171Z,9.40
2022-11-29T11:26:16.288Z,9.30
2022-11-29T11:28:49.711Z,9.40
2022-11-29T11:31:26.509Z,9.50
2022-11-29T11:33:54.689Z,9.60
2022-11-29T11:36:25.443Z,9.60
2022-11-29T11:38:56.648Z,9.60
2022-11-29T11:41:49.589Z,9.60
2022-11-29T11:44:48.484Z,9.60
2022-11-29T11:47:19.542Z,9.70
2022-11-29T11:49:50.623Z,9.70
2022-11-29T11:52:22.577Z,9.80
2022-11-29T11:54:55.113Z,9.90
2022-11-29T11:57:24.149Z,9.90
2022-11-29T11:59:53.655Z,9.90
2022-11-29T12:02:29.378Z,10.00
2022-11-29T12:05:01.714Z,9.90
2022-11-29T12:08:06.161Z,10.00
2022-11-29T12:10:27.986Z,10.00
2022-11-29T12:12:57.442Z,10.10
2022-11-29T12:15:29.746Z,10.10
2022-11-29T12:18:03.101Z,10.10
2022-11-29T12:20:38.072Z,10.20
2022-11-29T12:23:32.123Z,10.30
2022-11-29T12:26:06.844Z,10.30
2022-11-29T12:28:36.785Z,10.20
2022-11-29T12:31:17.864Z,10.20
2022-11-29T12:33:51.942Z,10.20
2022-11-29T12:36:30.713Z,10.20
2022-11-29T12:39:22.312Z,10.20
2022-11-29T12:41:57.133Z,10.30
2022-11-29T12:44:40.113Z,10.40
2022-11-29T12:50:23.956Z,10.50
2022-11-29T12:53:03.062Z,10.60
2022-11-29T12:55:41.126Z,10.70
2022-11-29T12:58:17.257Z,10.70
2022-11-29T13:00:58.132Z,10.70
2022-11-29T13:03:31.350Z,10.70
2022-11-29T13:06:09.663Z,10.60
2022-11-29T13:08:54.234Z,10.60
2022-11-29T13:11:26.852Z,10.60
2022-11-29T13:14:34.813Z,10.50
2022-11-29T13:16:58.907Z,10.50
2022-11-29T13:19:36.110Z,10.50
2022-11-29T13:22:11.925Z,10.50
2022-11-29T13:24:44.383Z,10.40
2022-11-29T13:27:18.106Z,10.30
2022-11-29T13:29:48.418Z,10.30
2022-11-29T13:32:32.656Z,10.30
2022-11-29T13:35:04.611Z,10.30
2022-11-29T13:37:39.761Z,10.20
2022-11-29T13:40:22.787Z,10.30
2022-11-29T13:42:58.823Z,10.20
2022-11-29T13:45:33.889Z,10.20
2022-11-29T13:48:08.159Z,10.20
2022-11-29T13:50:44.408Z,10.20
2022-11-29T13:53:15.828Z,10.20
2022-11-29T13:55:49.256Z,10.20
2022-11-29T13:58:44.420Z,10.20
2022-11-29T14:01:15.561Z,10.20
2022-11-29T14:03:45.134Z,10.20
2022-11-29T14:06:21.091Z,10.20
2022-11-29T14:09:32.061Z,10.20
2022-11-29T14:12:05.834Z,10.20
2022-11-29T14:14:40.738Z,10.10
2022-11-29T14:17:34.377Z,10.10
2022-11-29T14:20:50.557Z,10.10
2022-11-29T14:23:33.247Z,10.00
2022-11-29T14:26:32.691Z,10.00
2022-11-29T14:29:01.661Z,10.00
2022-11-29T14:31:52.595Z,9.90
2022-11-29T14:34:48.080Z,9.90
2022-11-29T14:37:34.907Z,9.90
2022-11-29T14:40:13.734Z,9.90
2022-11-29T14:42:48.564Z,9.90
2022-11-29T14:45:28.794Z,9.90
2022-11-29T14:47:57.563Z,9.90
2022-11-29T14:50:36.678Z,9.90
2022-11-29T14:53:07.158Z,9.80
2022-11-29T14:55:37.866Z,9.80
2022-11-29T14:58:17.074Z,9.80
2022-11-29T15:00:56.173Z,9.80
2022-11-29T15:03:32.858Z,9.80
2022-11-29T15:06:10.514Z,9.70
2022-11-29T15:08:45.701Z,9.70
2022-11-29T15:11:19.291Z,9.70
2022-11-29T15:13:55.385Z,9.70
2022-11-29T15:16:40.666Z,9.60
2022-11-29T15:19:54.671Z,9.60
2022-11-29T15:22:29.579Z,9.60
2022-11-29T15:25:01.491Z,9.50
2022-11-29T15:27:30.547Z,9.50
2022-11-29T15:29:59.933Z,9.50
2022-11-29T15:32:31.030Z,9.50
2022-11-29T15:34:59.697Z,9.50
2022-11-29T15:37:44.549Z,9.40
2022-11-29T15:40:14.900Z,9.40
2022-11-29T15:42:44.907Z,9.40
2022-11-29T15:45:25.015Z,9.40
2022-11-29T15:47:53.238Z,9.40
2022-11-29T15:50:26.856Z,9.30
2022-11-29T15:53:01.309Z,9.30
2022-11-29T15:55:29.938Z,9.30
2022-11-29T15:58:05.377Z,9.30
2022-11-29T16:00:37.035Z,9.30
2022-11-29T16:03:06.193Z,9.30
2022-11-29T16:05:37.655Z,9.30
2022-11-29T16:08:13.575Z,9.30
2022-11-29T16:10:47.350Z,9.20
2022-11-29T16:13:33.493Z,9.20
2022-11-29T16:16:12.562Z,9.20
2022-11-29T16:18:42.902Z,9.10
2022-11-29T16:21:24.586Z,9.10
2022-11-29T16:23:54.516Z,9.10
2022-11-29T16:26:25.254Z,9.10
2022-11-29T16:28:56.226Z,9.10
2022-11-29T16:31:31.505Z,9.10
2022-11-29T16:34:08.450Z,9.10
2022-11-29T16:36:36.935Z,9.10
2022-11-29T16:39:17.026Z,9.10
2022-11-29T16:41:45.149Z,9.00
2022-11-29T16:45:03.570Z,9.10
2022-11-29T16:47:33.039Z,9.10
2022-11-29T16:50:19.886Z,9.10
2022-11-29T16:52:52.015Z,9.00
2022-11-29T16:55:24.388Z,9.00
2022-11-29T16:57:52.504Z,8.90
2022-11-29T17:00:34.499Z,8.90
2022-11-29T17:03:02.575Z,8.90
2022-11-29T17:05:31.229Z,8.90
2022-11-29T17:07:59.396Z,8.90
2022-11-29T17:10:28.895Z,8.80
2022-11-29T17:12:56.925Z,8.90
2022-11-29T17:15:25.174Z,8.90
2022-11-29T17:17:53.183Z,8.90
2022-11-29T17:20:21.170Z,8.80
2022-11-29T17:22:49.253Z,8.80
2022-11-29T17:25:17.320Z,8.90
2022-11-29T17:27:46.721Z,8.80
2022-11-29T17:30:15.399Z,8.70
2022-11-29T17:32:43.421Z,8.70
2022-11-29T17:35:11.436Z,8.70
2022-11-29T17:37:39.491Z,8.70
2022-11-29T17:40:08.940Z,8.60
2022-11-29T17:42:36.938Z,8.60
2022-11-29T17:45:07.009Z,8.60
2022-11-29T17:47:35.429Z,8.60
2022-11-29T17:50:03.478Z,8.60
2022-11-29T17:52:31.519Z,8.60
2022-11-29T17:54:59.517Z,8.60
2022-11-29T17:57:27.552Z,8.60
2022-11-29T17:59:55.623Z,8.60
2022-11-29T18:02:25.102Z,8.60
2022-11-29T18:04:53.149Z,8.60
2022-11-29T18:07:21.213Z,8.60
2022-11-29T18:09:49.324Z,8.70
2022-11-29T18:12:17.371Z,8.70
2022-11-29T18:14:45.410Z,8.70
2022-11-29T18:17:13.470Z,8.70
2022-11-29T18:19:43.183Z,8.70
2022-11-29T18:22:11.384Z,8.70
2022-11-29T18:24:43.443Z,8.70
2022-11-29T18:27:11.425Z,8.70
2022-11-29T18:29:39.544Z,8.70
2022-11-29T18:32:07.554Z,8.70
2022-11-29T18:34:35.594Z,8.70
2022-11-29T18:37:05.001Z,8.70
2022-11-29T18:39:33.118Z,8.60
2022-11-29T18:42:01.109Z,8.60
2022-11-29T18:44:30.252Z,8.60
2022-11-29T18:46:58.756Z,8.60
2022-11-29T18:49:26.968Z,8.60
2022-11-29T18:51:54.979Z,8.60
2022-11-29T18:54:24.421Z,8.60
2022-11-29T18:56:52.764Z,8.60
2022-11-29T18:59:22.071Z,8.60
2022-11-29T19:01:50.268Z,8.60
2022-11-29T19:04:19.881Z,8.70
2022-11-29T19:06:48.842Z,8.70
2022-11-29T19:09:19.272Z,8.70
2022-11-29T19:11:49.685Z,8.70
2022-11-29T19:14:18.384Z,8.60
2022-11-29T19:16:48.207Z,8.60
2022-11-29T19:19:18.592Z,8.60
2022-11-29T19:21:46.643Z,8.60
2022-11-29T19:24:15.942Z,8.60
2022-11-29T19:26:45.865Z,8.60
2022-11-29T19:29:16.117Z,8.60
2022-11-29T19:31:44.421Z,8.60
2022-11-29T19:34:12.976Z,8.60
2022-11-29T19:36:43.382Z,8.60
2022-11-29T19:39:13.626Z,8.60
2022-11-29T19:41:44.227Z,8.60
2022-11-29T19:44:12.789Z,8.50
2022-11-29T19:46:44.316Z,8.50
2022-11-29T19:49:12.830Z,8.50
2022-11-29T19:51:41.186Z,8.60
2022-11-29T19:54:10.708Z,8.60
2022-11-29T19:56:39.450Z,8.60
2022-11-29T19:59:08.197Z,8.60
2022-11-29T20:01:40.769Z,8.50
2022-11-29T20:04:12.778Z,8.60
2022-11-29T20:06:42.460Z,8.50
2022-11-29T20:09:11.581Z,8.50
2022-11-29T20:11:39.656Z,8.50
2022-11-29T20:14:08.901Z,8.50
2022-11-29T20:16:39.157Z,8.50
2022-11-29T20:19:11.972Z,8.50
2022-11-29T20:21:43.709Z,8.60
2022-11-29T20:24:12.991Z,8.60
2022-11-29T20:26:42.156Z,8.60
2022-11-29T20:29:10.834Z,8.60
2022-11-29T20:31:46.011Z,8.60
2022-11-29T20:34:19.373Z,8.50
2022-11-29T20:37:06.753Z,8.60
2022-11-29T20:39:42.718Z,8.50
2022-11-29T20:42:48.272Z,8.50
2022-11-29T20:45:17.819Z,8.50
2022-11-29T20:47:54.271Z,8.50
2022-11-29T20:50:25.508Z,8.50
2022-11-29T20:53:08.194Z,8.50
2022-11-29T20:55:42.552Z,8.60
2022-11-29T20:58:14.413Z,8.50
2022-11-29T21:00:42.441Z,8.60
2022-11-29T21:03:14.041Z,8.60
2022-11-29T21:05:43.872Z,8.60
2022-11-29T21:08:11.911Z,8.60
2022-11-29T21:10:40.010Z,8.60
2022-11-29T21:13:08.579Z,8.50
2022-11-29T21:15:37.211Z,8.50
2022-11-29T21:18:06.014Z,8.50
2022-11-29T21:20:34.416Z,8.60
2022-11-29T21:23:10.154Z,8.60
2022-11-29T21:25:45.879Z,8.60
2022-11-29T21:28:17.149Z,8.60
2022-11-29T21:30:45.733Z,8.60
2022-11-29T21:33:14.200Z,8.60
2022-11-29T21:35:42.379Z,8.60
2022-11-29T21:38:16.929Z,8.60
2022-11-29T21:40:44.959Z,8.60
2022-11-29T21:43:12.985Z,8.60
2022-11-29T21:45:41.232Z,8.60
2022-11-29T21:48:29.631Z,8.60
2022-11-29T21:50:57.686Z,8.50
2022-11-29T21:53:27.930Z,8.50
2022-11-29T21:55:59.812Z,8.50
2022-11-29T21:58:29.229Z,8.50
2022-11-29T22:00:57.311Z,8.50
2022-11-29T22:03:25.334Z,8.50
2022-11-29T22:05:53.353Z,8.50
2022-11-29T22:08:21.354Z,8.60
2022-11-29T22:10:50.748Z,8.60
2022-11-29T22:13:18.755Z,8.60
2022-11-29T22:15:46.862Z,8.60
2022-11-29T22:18:14.921Z,8.60
2022-11-29T22:20:42.932Z,8.50
2022-11-29T22:23:10.957Z,8.50
2022-11-29T22:25:39.077Z,8.50
2022-11-29T22:28:08.477Z,8.50
2022-11-29T22:30:36.823Z,8.50
2022-11-29T22:33:08.874Z,8.40
2022-11-29T22:35:44.203Z,8.50
2022-11-29T22:38:12.227Z,8.40
2022-11-29T22:40:40.545Z,8.40
2022-11-29T22:43:09.951Z,8.40
2022-11-29T22:45:37.972Z,8.40
2022-11-29T22:48:06.403Z,8.40
2022-11-29T22:50:34.417Z,8.40
2022-11-29T22:53:02.442Z,8.40
2022-11-29T22:55:30.457Z,8.40
2022-11-29T22:57:58.575Z,8.40
2022-11-29T23:00:27.965Z,8.40
2022-11-29T23:02:57.959Z,8.40
2022-11-29T23:05:30.813Z,8.50
2022-11-29T23:08:00.410Z,8.50
2022-11-29T23:10:28.418Z,8.40
2022-11-29T23:12:56.490Z,8.50
2022-11-29T23:15:24.490Z,8.40
2022-11-29T23:17:53.869Z,8.40
2022-11-29T23:20:21.893Z,8.40
2022-11-29T23:22:49.906Z,8.40
2022-11-29T23:25:17.986Z,8.40
2022-11-29T23:27:46.016Z,8.50
2022-11-29T23:30:15.140Z,8.50
2022-11-29T23:32:43.160Z,8.50
2022-11-29T23:35:12.646Z,8.50
2022-11-29T23:37:40.665Z,8.50
2022-11-29T23:40:10.095Z,8.50
2022-11-29T23:42:38.125Z,8.50
2022-11-29T23:45:07.144Z,8.40
2022-11-29T23:47:35.179Z,8.40
2022-11-29T23:50:03.156Z,8.40
2022-11-29T23:52:32.552Z,8.40
2022-11-29T23:55:00.574Z,8.40
2022-11-29T23:57:30.454Z,8.40
2022-11-29T23:59:58.471Z,8.40
